Time;durP1;ratioP1;P1;durP2;ratioP2;P2;SDS_P1;SDS_P2;PMS_P1;PMS_P2;Temp;Humidity;BMP_temperature;BMP_pressure;BME280_temperature;BME280_humidity;BME280_pressure;Samples;Min_cycle;Max_cycle;Signal;HPM_P1;HPM_P2
2022/06/13 00:01:38;;;;;;;156.48;125.30;;;;;;;29.19;74.76;100787.06;5053692;28;66731;-41
2022/06/13 00:04:10;;;;;;;130.40;101.50;;;;;;;29.14;74.70;100794.97;5077226;27;69020;-42
2022/06/13 00:06:41;;;;;;;140.55;118.65;;;;;;;29.10;75.23;100791.03;5055161;27;66922;-40
2022/06/13 00:09:11;;;;;;;163.77;139.05;;;;;;;29.08;75.36;100796.66;5034433;28;71058;-41
2022/06/13 00:11:43;;;;;;;206.93;184.27;;;;;;;29.11;75.93;100795.41;5050733;28;65969;-40
2022/06/13 00:14:14;;;;;;;184.98;155.30;;;;;;;29.14;76.31;100805.78;5051457;28;70209;-42
2022/06/13 00:16:45;;;;;;;291.98;256.92;;;;;;;29.20;74.41;100806.81;5051329;28;66013;-41
2022/06/13 00:19:16;;;;;;;300.40;264.05;;;;;;;29.33;71.95;100815.72;5058210;28;70741;-41
2022/06/13 00:21:46;;;;;;;225.85;200.68;;;;;;;29.44;70.50;100818.81;5062968;28;66144;-41
2022/06/13 00:24:18;;;;;;;189.13;159.35;;;;;;;29.51;70.30;100823.16;5057873;28;69537;-42
2022/06/13 00:26:49;;;;;;;225.40;199.07;;;;;;;29.61;69.76;100825.41;5041623;28;65365;-40
2022/06/13 00:29:20;;;;;;;202.60;180.48;;;;;;;29.70;69.42;100826.88;5056356;27;69320;-41
2022/06/13 00:31:51;;;;;;;191.40;164.50;;;;;;;29.75;69.70;100829.75;5051646;28;66395;-41
2022/06/13 00:34:22;;;;;;;149.30;128.75;;;;;;;29.84;68.87;100827.66;5051172;28;69569;-48
2022/06/13 00:36:53;;;;;;;145.05;121.22;;;;;;;29.89;69.22;100830.53;5048649;28;66374;-41
2022/06/13 00:39:23;;;;;;;129.65;112.60;;;;;;;29.94;68.87;100833.41;5050930;28;70400;-41
2022/06/13 00:41:54;;;;;;;123.38;105.07;;;;;;;30.01;68.55;100838.81;5039985;28;66212;-41
2022/06/13 00:44:35;;;;;;;120.70;98.55;;;;;;;30.04;68.90;100836.50;5049062;28;69922;-41
2022/06/13 00:47:06;;;;;;;104.50;88.50;;;;;;;30.10;68.82;100842.09;5046721;28;66360;-40
2022/06/13 00:49:42;;;;;;;98.53;84.65;;;;;;;29.96;68.30;100814.28;5040337;28;70320;-41
2022/06/13 00:52:21;;;;;;;97.13;79.25;;;;;;;29.90;68.13;100804.34;5053802;28;66364;-41
2022/06/13 00:54:53;;;;;;;92.03;77.20;;;;;;;29.95;68.44;100807.19;5047505;28;70918;-41
2022/06/13 00:57:29;;;;;;;94.82;76.22;;;;;;;30.24;68.17;100851.84;5051240;28;66217;-40
2022/06/13 01:00:06;;;;;;;84.65;69.18;;;;;;;29.95;68.46;100793.69;5042999;28;69447;-40
2022/06/13 01:02:44;;;;;;;81.47;67.82;;;;;;;30.00;68.19;100794.69;5052120;28;66492;-40
2022/06/13 01:05:25;;;;;;;78.72;63.13;;;;;;;30.32;68.45;100856.16;5040728;28;69026;-40
2022/06/13 01:07:59;;;;;;;78.80;63.92;;;;;;;30.45;67.97;100865.03;5043173;28;66688;-41
2022/06/13 01:13:20;;;;;;;77.07;59.17;;;;;;;30.51;68.17;100863.34;5048612;28;66537;-41
2022/06/13 01:16:16;;;;;;;71.03;59.33;;;;;;;30.46;68.19;100865.88;5047172;28;69656;-41
2022/06/13 01:18:57;;;;;;;77.35;57.20;;;;;;;30.60;67.89;100867.44;5049152;28;65564;-42
2022/06/13 01:21:46;;;;;;;63.43;53.97;;;;;;;30.60;67.52;100864.72;5042865;28;70150;-41
2022/06/13 01:24:41;;;;;;;65.32;53.30;;;;;;;30.58;68.01;100866.81;5050340;28;66364;-40
2022/06/13 01:27:45;;;;;;;71.10;55.30;;;;;;;30.59;68.81;100868.50;5048696;28;69642;-41
2022/06/13 01:30:49;;;;;;;72.78;55.08;;;;;;;30.57;68.85;100854.34;5047583;27;65905;-40
2022/06/13 01:33:27;;;;;;;72.50;54.20;;;;;;;30.75;67.69;100858.16;5039840;28;70397;-41
2022/06/13 01:36:43;;;;;;;74.20;55.95;;;;;;;30.66;68.50;100863.00;5055446;28;66095;-41
2022/06/13 01:39:32;;;;;;;65.72;52.63;;;;;;;30.80;67.93;100863.78;5062546;28;70119;-41
2022/06/13 01:42:36;;;;;;;72.40;53.38;;;;;;;30.46;68.17;100811.72;5053410;28;66315;-41
2022/06/13 01:45:15;;;;;;;65.65;50.33;;;;;;;30.86;67.41;100857.47;5030679;28;70107;-41
2022/06/13 01:48:21;;;;;;;63.78;50.45;;;;;;;30.85;67.40;100862.06;5045977;28;66215;-41
2022/06/13 01:51:14;;;;;;;61.75;48.80;;;;;;;30.55;67.03;100802.28;5048164;28;69982;-41
2022/06/13 01:53:50;;;;;;;59.38;46.10;;;;;;;30.95;67.09;100861.56;5043635;28;66223;-41
2022/06/13 01:56:31;;;;;;;64.22;46.97;;;;;;;30.63;66.80;100810.13;5049711;28;70277;-41
2022/06/13 01:59:11;;;;;;;55.58;44.92;;;;;;;30.62;66.36;100811.19;5047104;28;66218;-41
2022/06/13 02:01:56;;;;;;;54.83;45.22;;;;;;;31.02;66.10;100856.09;5049288;28;69987;-40
2022/06/13 02:04:35;;;;;;;54.05;43.05;;;;;;;30.98;66.37;100849.44;5040306;28;65610;-41
2022/06/13 02:07:09;;;;;;;52.30;43.42;;;;;;;31.09;65.64;100863.13;5043551;28;70410;-40
2022/06/13 02:09:51;;;;;;;51.90;41.75;;;;;;;31.08;65.92;100866.88;5043139;28;66344;-41
2022/06/13 02:12:26;;;;;;;51.08;41.22;;;;;;;30.67;65.49;100795.13;5043171;28;70041;-41
2022/06/13 02:15:15;;;;;;;49.83;41.10;;;;;;;31.12;64.95;100862.69;5045654;28;66067;-51
2022/06/13 02:17:51;;;;;;;52.88;39.75;;;;;;;31.22;65.35;100873.00;5047418;28;69963;-41
2022/06/13 02:20:27;;;;;;;50.58;38.38;;;;;;;30.86;64.88;100806.00;5043916;28;66561;-41
2022/06/13 02:23:02;;;;;;;45.22;37.30;;;;;;;31.28;64.69;100873.97;5044011;28;70092;-41
2022/06/13 02:25:43;;;;;;;49.30;38.75;;;;;;;30.93;64.55;100815.75;5051916;28;65699;-41
2022/06/13 02:28:31;;;;;;;49.60;37.88;;;;;;;31.32;64.39;100877.91;5042816;28;69301;-41
2022/06/13 02:31:24;;;;;;;47.15;37.33;;;;;;;31.34;64.46;100881.22;5049882;28;65426;-42
2022/06/13 02:34:06;;;;;;;41.25;34.55;;;;;;;31.35;64.57;100885.59;5049991;28;69976;-42
2022/06/13 02:36:39;;;;;;;40.22;35.25;;;;;;;31.40;64.67;100883.09;5052145;28;65792;-40
2022/06/13 02:39:18;;;;;;;44.47;35.40;;;;;;;31.45;63.90;100894.06;5046676;28;70493;-40
2022/06/13 02:42:11;;;;;;;45.47;35.00;;;;;;;31.10;63.82;100839.56;5042222;28;65404;-40
2022/06/13 02:44:45;;;;;;;45.33;33.42;;;;;;;31.47;63.72;100883.81;5043792;28;70632;-40
2022/06/13 02:47:22;;;;;;;43.42;32.97;;;;;;;31.52;63.55;100894.84;5040235;28;66746;-40
2022/06/13 02:50:11;;;;;;;40.72;31.35;;;;;;;31.50;63.71;100888.81;5047771;28;69047;-40
2022/06/13 02:52:52;;;;;;;35.30;31.48;;;;;;;31.57;63.34;100883.31;5042605;28;66563;-41
2022/06/13 02:55:24;;;;;;;37.03;31.40;;;;;;;31.58;63.14;100885.78;5040492;28;69295;-40
2022/06/13 02:58:12;;;;;;;37.22;31.48;;;;;;;31.24;63.16;100832.13;5042423;28;66856;-40
2022/06/13 03:00:55;;;;;;;33.35;29.63;;;;;;;31.65;63.48;100887.59;5046178;28;69260;-40
2022/06/13 03:03:57;;;;;;;31.40;28.05;;;;;;;31.29;63.35;100841.25;5041407;28;66407;-41
2022/06/13 03:07:06;;;;;;;36.95;29.15;;;;;;;31.59;63.13;100879.34;5038998;28;70150;-40
2022/06/13 03:10:00;;;;;;;34.03;27.88;;;;;;;31.36;62.94;100841.19;5043697;28;65590;-41
2022/06/13 03:13:01;;;;;;;30.50;27.23;;;;;;;31.32;63.09;100829.97;5038816;28;70471;-41
2022/06/13 03:15:51;;;;;;;35.72;26.90;;;;;;;31.67;62.50;100880.06;5047843;28;65057;-40
2022/06/13 03:18:28;;;;;;;28.83;25.77;;;;;;;31.32;62.59;100802.03;5048067;28;70619;-41
2022/06/13 03:21:04;;;;;;;28.33;25.33;;;;;;;31.83;62.30;100880.28;5045112;28;66089;-40
2022/06/13 03:23:48;;;;;;;29.85;24.95;;;;;;;31.87;62.40;100879.84;5044667;28;70550;-40
2022/06/13 03:26:23;;;;;;;31.20;25.13;;;;;;;31.45;61.84;100807.31;5052818;28;65385;-42
2022/06/13 03:29:03;;;;;;;26.92;24.00;;;;;;;31.53;61.97;100809.72;5039900;28;69291;-41
2022/06/13 03:31:57;;;;;;;26.83;23.45;;;;;;;31.46;62.32;100817.13;5042508;28;65305;-41
2022/06/13 03:34:34;;;;;;;25.92;22.40;;;;;;;31.93;61.96;100862.69;5040086;28;70672;-40
2022/06/13 03:37:14;;;;;;;25.27;22.63;;;;;;;31.67;62.23;100821.25;5048785;28;66559;-41
2022/06/13 03:40:00;;;;;;;26.75;22.95;;;;;;;31.94;61.89;100859.75;5046782;28;69435;-41
2022/06/13 03:42:42;;;;;;;23.55;21.20;;;;;;;31.71;61.80;100800.75;5051554;28;66340;-41
2022/06/13 03:45:35;;;;;;;26.52;22.20;;;;;;;31.92;61.97;100852.91;5044895;28;69035;-41
2022/06/13 03:48:26;;;;;;;27.15;22.33;;;;;;;31.79;61.86;100832.19;5053306;28;65614;-41
2022/06/13 03:51:15;;;;;;;24.15;21.55;;;;;;;32.05;61.76;100845.41;5051280;28;69296;-46
2022/06/13 03:53:55;;;;;;;21.40;19.30;;;;;;;31.98;61.74;100839.25;5043449;28;65173;-40
2022/06/13 03:56:38;;;;;;;22.40;20.15;;;;;;;32.08;61.31;100854.16;5049345;28;69343;-41
2022/06/13 03:59:41;;;;;;;21.95;19.75;;;;;;;31.96;61.57;100854.13;5045239;28;66086;-41
2022/06/13 04:02:16;;;;;;;23.27;18.77;;;;;;;32.11;61.33;100849.09;5049330;28;70387;-42
2022/06/13 04:04:50;;;;;;;24.88;19.17;;;;;;;31.91;61.35;100816.81;5046412;28;66804;-41
2022/06/13 04:07:23;;;;;;;20.20;17.83;;;;;;;32.12;61.27;100853.44;5051782;28;69200;-42
2022/06/13 04:10:05;;;;;;;19.65;17.58;;;;;;;32.15;61.81;100849.44;5047399;28;65473;-41
2022/06/13 04:12:45;;;;;;;;;;;;;;;31.77;62.07;100845.13;5047966;28;69685;-41
2022/06/13 04:15:34;;;;;;;19.73;17.45;;;;;;;32.02;61.54;100823.34;5051606;28;66010;-41
2022/06/13 04:18:14;;;;;;;19.38;17.67;;;;;;;32.10;61.38;100825.75;5042048;28;69243;-43
2022/06/13 04:20:44;;;;;;;18.35;16.85;;;;;;;32.17;61.23;100820.22;5043845;28;65284;-40
2022/06/13 04:23:33;;;;;;;19.20;16.83;;;;;;;32.19;61.41;100820.81;5050663;28;70124;-42
2022/06/13 04:26:28;;;;;;;18.23;16.80;;;;;;;32.10;61.30;100811.34;5051547;28;65363;-41
2022/06/13 04:29:25;;;;;;;17.48;15.68;;;;;;;32.16;60.92;100807.72;5057042;28;70699;-41
2022/06/13 04:32:01;;;;;;;18.45;16.52;;;;;;;32.22;61.16;100804.06;5054659;28;65487;-40
2022/06/13 04:34:40;;;;;;;;;;;;;;;31.89;62.27;100801.78;5053973;28;70147;-40
2022/06/13 04:37:13;;;;;;;23.55;17.45;;;;;;;32.18;61.40;100778.44;5047453;28;66204;-40
2022/06/13 04:39:47;;;;;;;18.63;17.02;;;;;;;32.30;61.38;100792.88;5051082;28;69600;-41
2022/06/13 04:42:21;;;;;;;18.42;15.02;;;;;;;32.33;61.01;100792.41;5053965;28;66575;-40
2022/06/13 04:44:55;;;;;;;18.08;16.30;;;;;;;32.33;60.83;100781.56;5057125;28;70033;-41
2022/06/13 04:47:31;;;;;;;19.13;16.23;;;;;;;32.36;61.23;100775.66;5041987;28;66547;-41
2022/06/13 04:50:04;;;;;;;22.67;16.60;;;;;;;32.08;60.88;100713.06;5044962;28;69224;-43
2022/06/13 04:52:36;;;;;;;18.17;16.50;;;;;;;32.41;60.84;100761.38;5046659;28;66618;-42
2022/06/13 04:55:07;;;;;;;19.60;17.05;;;;;;;32.42;60.89;100774.72;5052192;28;69718;-41
2022/06/13 04:57:38;;;;;;;16.50;15.07;;;;;;;32.42;60.72;100761.13;5046751;28;67816;-41
2022/06/13 05:00:11;;;;;;;19.45;16.17;;;;;;;32.46;60.43;100766.97;5046813;28;69591;-40
2022/06/13 05:02:48;;;;;;;17.58;15.65;;;;;;;32.25;60.22;100724.88;5052202;28;66317;-41
2022/06/13 05:05:41;;;;;;;17.45;15.57;;;;;;;32.40;60.58;100760.56;5046949;28;69341;-41
2022/06/13 05:08:25;;;;;;;17.40;15.35;;;;;;;31.85;60.55;100660.38;5042986;28;66322;-42
2022/06/13 05:11:12;;;;;;;18.50;15.70;;;;;;;32.43;60.50;100742.97;5043987;28;70248;-40
2022/06/13 05:13:49;;;;;;;16.80;15.20;;;;;;;32.55;60.20;100734.88;5042629;28;43598;-42
2022/06/13 05:16:27;;;;;;;17.75;16.10;;;;;;;32.46;60.27;100718.94;5049337;28;69619;-43
2022/06/13 05:19:09;;;;;;;17.52;15.73;;;;;;;32.56;60.18;100731.91;5040942;28;65930;-42
2022/06/13 05:21:47;;;;;;;18.58;16.70;;;;;;;32.61;60.11;100728.50;5042955;28;69835;-41
2022/06/13 05:24:26;;;;;;;17.95;16.40;;;;;;;32.64;60.13;100728.03;5044977;28;65221;-41
2022/06/13 05:26:57;;;;;;;19.30;16.90;;;;;;;32.67;60.43;100727.56;5045477;28;70405;-41
2022/06/13 05:29:28;;;;;;;19.55;17.58;;;;;;;32.68;60.25;100713.75;5047266;28;66271;-41
2022/06/13 05:31:59;;;;;;;24.20;21.98;;;;;;;32.64;60.21;100700.88;5048708;28;69765;-41
2022/06/13 05:34:37;;;;;;;24.60;22.20;;;;;;;32.70;60.21;100699.91;5044515;28;66808;-42
2022/06/13 05:37:09;;;;;;;25.23;22.77;;;;;;;32.75;60.30;100705.47;5044388;28;70417;-40
2022/06/13 05:39:41;;;;;;;21.35;18.65;;;;;;;32.79;60.46;100703.94;5048049;28;66725;-41
2022/06/13 05:42:13;;;;;;;22.30;20.15;;;;;;;32.79;60.10;100693.06;5044297;28;70011;-41
2022/06/13 05:44:44;;;;;;;24.63;22.23;;;;;;;32.80;60.23;100689.28;5046753;28;66243;-41
2022/06/13 05:47:20;;;;;;;23.15;21.08;;;;;;;32.85;59.89;100702.16;5050800;28;69624;-39
2022/06/13 05:49:51;;;;;;;24.80;22.60;;;;;;;32.86;60.08;100682.91;5043830;28;66693;-40
2022/06/13 05:52:22;;;;;;;21.48;19.60;;;;;;;32.89;60.00;100674.25;5045505;28;69772;-40
2022/06/13 05:54:53;;;;;;;20.95;18.95;;;;;;;32.96;59.75;100676.00;5040279;28;66028;-41
2022/06/13 05:57:25;;;;;;;19.83;18.20;;;;;;;32.98;59.91;100660.31;5045219;28;70270;-41
2022/06/13 05:59:56;;;;;;;20.95;19.15;;;;;;;33.01;59.97;100662.56;5046332;28;65875;-41
2022/06/13 06:02:27;;;;;;;21.02;19.05;;;;;;;32.98;59.98;100644.00;5046775;28;69756;-41
2022/06/13 06:04:58;;;;;;;24.90;22.63;;;;;;;32.74;59.89;100592.47;5049272;28;66392;-40
2022/06/13 06:07:33;;;;;;;24.98;22.65;;;;;;;33.11;59.89;100643.78;5041618;28;69496;-40
2022/06/13 06:10:05;;;;;;;25.30;22.98;;;;;;;33.09;59.58;100635.03;5044789;28;65912;-41
2022/06/13 06:12:36;;;;;;;24.15;22.05;;;;;;;33.11;59.70;100630.19;5049497;28;70030;-41
2022/06/13 06:15:07;;;;;;;23.88;21.67;;;;;;;33.13;59.46;100623.44;5042569;28;66496;-41
2022/06/13 06:17:38;;;;;;;24.87;22.43;;;;;;;33.20;59.67;100631.44;5051348;28;68781;-41
2022/06/13 06:20:16;;;;;;;24.33;22.17;;;;;;;32.91;59.21;100577.06;5055318;28;65778;-43
2022/06/13 06:22:47;;;;;;;25.70;23.20;;;;;;;33.25;59.36;100617.13;5034855;28;69105;-43
2022/06/13 06:25:18;;;;;;;24.75;22.48;;;;;;;33.29;59.39;100608.25;5050487;28;66247;-44
2022/06/13 06:27:50;;;;;;;24.55;22.45;;;;;;;33.30;59.30;100607.19;5047138;28;70733;-41
2022/06/13 06:30:21;;;;;;;24.85;22.52;;;;;;;33.36;59.42;100614.34;5047818;28;66147;-40
2022/06/13 06:32:57;;;;;;;25.55;23.05;;;;;;;33.40;59.35;100605.72;5044717;28;70595;-41
2022/06/13 06:35:30;;;;;;;24.67;22.38;;;;;;;33.45;59.25;100608.53;5031306;28;66678;-41
2022/06/13 06:38:07;;;;;;;25.08;22.48;;;;;;;33.43;59.35;100599.78;5045605;28;70682;-42
2022/06/13 06:40:38;;;;;;;25.35;22.98;;;;;;;33.49;59.03;100596.91;5051769;28;66198;-41
2022/06/13 06:43:09;;;;;;;25.55;23.10;;;;;;;33.51;59.12;100596.66;5040806;28;70071;-43
2022/06/13 06:45:44;;;;;;;25.25;22.95;;;;;;;33.54;58.93;100588.88;5047994;28;64909;-41
2022/06/13 06:48:18;;;;;;;24.20;22.20;;;;;;;33.59;58.91;100588.13;5048748;28;69346;-41
2022/06/13 06:50:50;;;;;;;26.17;23.70;;;;;;;33.62;58.70;100584.91;5044599;28;65450;-46
2022/06/13 06:53:23;;;;;;;;;;;;;;;33.33;59.40;100578.69;5046088;28;70545;-41
2022/06/13 07:01:32;;;;;;;24.67;22.27;;;;;;;33.72;58.62;100570.69;5045110;28;65707;-40
2022/06/13 07:04:03;;;;;;;24.70;22.50;;;;;;;33.72;58.64;100565.25;5041002;28;69797;-42
2022/06/13 07:06:38;;;;;;;24.27;21.73;;;;;;;33.78;58.33;100558.81;5042728;28;64859;-41
2022/06/13 07:09:10;;;;;;;24.27;22.10;;;;;;;33.84;58.80;100541.47;5048083;28;70190;-43
2022/06/13 07:11:56;;;;;;;22.40;20.50;;;;;;;33.83;58.44;100539.03;5049800;28;66245;-41
2022/06/13 07:14:33;;;;;;;24.05;21.75;;;;;;;33.90;58.32;100556.81;5050811;28;70522;-41
2022/06/13 07:17:06;;;;;;;24.05;21.95;;;;;;;33.94;58.26;100562.59;5037335;28;66172;-40
2022/06/13 07:19:38;;;;;;;25.08;22.52;;;;;;;33.93;58.51;100536.44;5046873;28;70784;-41
2022/06/13 07:22:14;;;;;;;24.60;21.83;;;;;;;33.67;57.94;100480.81;5050408;28;65785;-41
2022/06/13 07:24:46;;;;;;;23.33;20.92;;;;;;;33.99;58.26;100524.53;5055522;28;70221;-41
2022/06/13 07:27:16;;;;;;;24.02;21.67;;;;;;;33.99;58.45;100522.66;5045767;28;66499;-41
2022/06/13 07:29:48;;;;;;;23.67;21.23;;;;;;;33.92;57.99;100500.25;5058131;28;71379;-41
2022/06/13 07:32:22;;;;;;;22.50;20.55;;;;;;;33.61;58.34;100450.00;5058132;28;65687;-39
2022/06/13 07:34:54;;;;;;;22.08;20.15;;;;;;;33.88;58.01;100484.66;5046020;28;70500;-40
2022/06/13 07:40:20;;;;;;;20.05;18.33;;;;;;;34.07;57.90;100488.78;5051252;28;69984;-41
2022/06/13 07:42:54;;;;;;;22.38;19.95;;;;;;;34.10;58.14;100488.28;5050355;28;66339;-41
2022/06/13 07:45:27;;;;;;;20.33;18.55;;;;;;;33.82;57.99;100445.66;5045196;28;70937;-41
2022/06/13 07:48:17;;;;;;;21.83;19.80;;;;;;;34.11;58.08;100492.66;5048243;28;66148;-41
2022/06/13 07:50:49;;;;;;;20.80;19.03;;;;;;;34.12;58.31;100488.84;5047843;28;71756;-41
2022/06/13 07:53:19;;;;;;;20.58;18.77;;;;;;;34.12;57.87;100482.56;5045688;28;65855;-40
2022/06/13 07:56:17;;;;;;;19.88;18.23;;;;;;;33.72;57.98;100419.16;5037094;28;70004;-45
2022/06/13 07:58:50;;;;;;;19.92;18.17;;;;;;;34.15;57.94;100492.97;5051624;28;65766;-40
2022/06/13 08:01:22;;;;;;;19.20;17.42;;;;;;;34.11;57.96;100481.75;5041644;28;69036;-40
2022/06/13 08:03:53;;;;;;;;;;;;;;;33.86;58.66;100495.00;5044628;28;65762;-42
2022/06/13 08:06:25;;;;;;;18.85;17.02;;;;;;;34.14;58.04;100496.78;5045293;28;71652;-41
2022/06/13 08:08:56;;;;;;;19.08;17.50;;;;;;;34.15;58.14;100509.28;5046957;28;65387;-41
2022/06/13 08:11:35;;;;;;;18.93;17.37;;;;;;;33.73;58.31;100436.31;5042050;28;70467;-41
2022/06/13 08:14:06;;;;;;;18.67;16.88;;;;;;;34.14;58.06;100486.69;5043611;28;65579;-42
2022/06/13 08:16:37;;;;;;;19.42;17.38;;;;;;;34.13;58.18;100479.63;5050557;28;71015;-41
2022/06/13 08:19:08;;;;;;;17.83;16.33;;;;;;;34.12;58.19;100480.69;5046346;28;66044;-41
2022/06/13 08:21:40;;;;;;;18.07;16.47;;;;;;;34.13;58.50;100489.66;5043590;28;70096;-41
2022/06/13 08:24:11;;;;;;;16.83;15.18;;;;;;;34.14;58.40;100483.97;5044619;28;65166;-41
2022/06/13 08:26:42;;;;;;;17.42;15.82;;;;;;;34.12;58.55;100477.97;5048154;28;70268;-41
2022/06/13 08:29:13;;;;;;;17.08;15.75;;;;;;;34.12;58.51;100477.97;5042232;28;66675;-41
2022/06/13 08:31:44;;;;;;;17.83;16.33;;;;;;;34.10;58.32;100480.13;5045276;28;70180;-41
2022/06/13 08:34:15;;;;;;;16.47;14.97;;;;;;;34.09;58.61;100467.56;5044382;28;66720;-41
2022/06/13 08:36:46;;;;;;;16.83;15.63;;;;;;;34.07;58.33;100464.28;5042738;28;70047;-41
2022/06/13 08:39:17;;;;;;;16.92;15.38;;;;;;;34.07;58.66;100461.56;5049259;28;66462;-42
2022/06/13 08:42:18;;;;;;;17.02;15.45;;;;;;;33.24;58.93;100336.34;5046623;28;69755;-41
2022/06/13 08:45:07;;;;;;;16.98;15.52;;;;;;;33.61;58.67;100382.03;5050243;28;66105;-41
2022/06/13 08:47:43;;;;;;;16.35;15.02;;;;;;;34.08;58.81;100444.16;5045830;28;69591;-41
2022/06/13 08:50:33;;;;;;;15.00;14.00;;;;;;;34.08;58.94;100455.06;5041580;28;66306;-41
2022/06/13 08:53:37;;;;;;;16.05;14.70;;;;;;;34.04;58.94;100453.88;5041720;28;70581;-42
2022/06/13 08:56:11;;;;;;;15.07;13.98;;;;;;;34.06;59.04;100453.66;5041366;28;65887;-40
2022/06/13 08:59:22;;;;;;;15.52;14.10;;;;;;;34.05;59.08;100449.31;5051154;28;69309;-41
2022/06/13 09:02:12;;;;;;;14.15;13.05;;;;;;;33.96;59.23;100441.53;5043905;28;66454;-41
2022/06/13 09:04:52;;;;;;;14.30;13.27;;;;;;;33.58;58.91;100371.66;5042976;28;70359;-41
2022/06/13 09:07:34;;;;;;;15.55;14.23;;;;;;;33.93;59.30;100427.59;5048636;28;65568;-41
2022/06/13 09:10:11;;;;;;;14.40;13.30;;;;;;;33.99;59.38;100451.06;5039219;28;70335;-41
2022/06/13 09:13:06;;;;;;;14.70;13.43;;;;;;;33.91;59.46;100457.78;5050467;28;65555;-43
2022/06/13 09:16:01;;;;;;;14.95;13.48;;;;;;;33.87;59.34;100467.50;5046770;28;69901;-42
2022/06/13 09:18:37;;;;;;;14.43;13.13;;;;;;;33.89;59.43;100450.94;5044242;28;64114;-40
2022/06/13 09:21:16;;;;;;;13.63;12.40;;;;;;;33.77;59.31;100443.72;5043573;28;70480;-40
2022/06/13 09:23:59;;;;;;;13.45;12.45;;;;;;;33.94;59.07;100461.91;5042349;28;66559;-40
2022/06/13 09:26:44;;;;;;;13.52;12.40;;;;;;;33.93;59.57;100462.97;5050066;28;69757;-40
2022/06/13 09:29:53;;;;;;;13.85;11.65;;;;;;;33.75;59.18;100429.53;5050099;28;66128;-40
2022/06/13 09:32:39;;;;;;;13.38;12.18;;;;;;;33.60;59.47;100410.31;5051657;28;70183;-41
2022/06/13 09:35:24;;;;;;;15.52;12.10;;;;;;;33.87;59.65;100463.97;5048742;28;66055;-40
2022/06/13 09:38:26;;;;;;;13.52;12.27;;;;;;;33.56;59.46;100406.41;5046776;28;69949;-40
2022/06/13 09:41:04;;;;;;;12.85;11.65;;;;;;;33.86;59.64;100470.50;5056930;28;66306;-41
2022/06/13 09:43:42;;;;;;;13.35;12.05;;;;;;;33.88;59.69;100487.38;5045593;28;69912;-41
2022/06/13 09:46:40;;;;;;;12.63;11.52;;;;;;;33.76;59.91;100485.59;5043296;28;66289;-41
2022/06/13 09:49:29;;;;;;;14.60;12.38;;;;;;;33.46;59.79;100414.38;5043223;28;69573;-40
2022/06/13 09:52:18;;;;;;;12.07;11.00;;;;;;;33.73;60.02;100491.53;5045654;28;65776;-41
2022/06/13 09:54:58;;;;;;;13.73;11.40;;;;;;;33.83;59.74;100506.38;5040862;28;70146;-41
2022/06/13 09:57:53;;;;;;;13.95;12.63;;;;;;;33.83;60.04;100496.31;5051968;28;66274;-40
2022/06/13 10:00:29;;;;;;;13.05;12.00;;;;;;;33.83;59.91;100492.78;5038753;28;70505;-41
2022/06/13 10:03:36;;;;;;;12.80;10.90;;;;;;;33.72;60.02;100489.06;5044648;28;66409;-41
2022/06/13 10:06:18;;;;;;;13.45;11.40;;;;;;;33.71;60.32;100482.81;5041053;28;69009;-41
2022/06/13 10:08:55;;;;;;;13.30;12.05;;;;;;;33.36;59.69;100415.88;5053236;28;65656;-41
2022/06/13 10:11:40;;;;;;;11.95;10.95;;;;;;;33.78;59.96;100498.94;5041723;28;69632;-42
2022/06/13 10:14:30;;;;;;;11.88;10.95;;;;;;;33.73;59.81;100516.00;5043829;28;66371;-46
2022/06/13 10:17:23;;;;;;;12.70;11.40;;;;;;;33.77;60.02;100525.34;5058862;28;69837;-40
2022/06/13 10:20:35;;;;;;;12.15;11.18;;;;;;;33.64;60.23;100519.41;5042246;28;66088;-40
2022/06/13 10:23:33;;;;;;;11.20;10.40;;;;;;;33.69;60.19;100520.31;5049119;28;69494;-41
2022/06/13 10:26:23;;;;;;;12.23;11.30;;;;;;;33.70;60.40;100513.78;5044270;28;66219;-41
2022/06/13 10:29:03;;;;;;;15.40;10.40;;;;;;;33.73;60.22;100507.84;5048855;28;70156;-41
2022/06/13 10:32:11;;;;;;;11.98;11.07;;;;;;;33.62;60.24;100519.63;5051442;28;66707;-42
2022/06/13 10:34:55;;;;;;;11.57;10.80;;;;;;;33.31;60.17;100477.50;5041585;28;70148;-41
2022/06/13 10:37:31;;;;;;;11.40;10.60;;;;;;;33.72;60.42;100521.72;5039817;28;66361;-40
2022/06/13 10:40:06;;;;;;;11.63;10.73;;;;;;;33.71;60.28;100515.47;5045342;28;69976;-41
2022/06/13 10:42:38;;;;;;;11.13;10.18;;;;;;;33.70;60.24;100519.22;5047993;28;65419;-41
2022/06/13 10:45:12;;;;;;;11.00;10.10;;;;;;;33.59;60.42;100509.25;5041351;28;69946;-41
2022/06/13 10:47:46;;;;;;;10.75;9.80;;;;;;;33.27;60.32;100466.31;5047755;28;66080;-41
2022/06/13 10:50:26;;;;;;;9.93;9.13;;;;;;;33.55;60.50;100527.97;5051975;28;70036;-41
2022/06/13 10:53:02;;;;;;;10.45;9.75;;;;;;;33.68;60.33;100536.88;5045142;28;65664;-41
2022/06/13 10:55:39;;;;;;;10.73;9.93;;;;;;;33.67;60.18;100552.38;5042100;28;69014;-42
2022/06/13 10:58:21;;;;;;;10.60;9.90;;;;;;;33.36;62.37;100554.53;5052657;28;65079;-43
2022/06/13 11:01:12;;;;;;;11.10;10.05;;;;;;;33.13;63.69;100557.41;5050096;28;70287;-41
2022/06/13 11:04:04;;;;;;;10.90;9.85;;;;;;;33.10;64.44;100552.44;5041705;28;65286;-41
2022/06/13 11:06:44;;;;;;;10.57;9.68;;;;;;;32.99;64.27;100534.25;5040014;28;70335;-41
2022/06/13 11:09:27;;;;;;;10.90;9.90;;;;;;;32.90;65.13;100537.38;5045632;28;66135;-43
2022/06/13 11:12:02;;;;;;;15.77;8.70;;;;;;;32.55;65.42;100480.47;5060522;28;69926;-41
2022/06/13 11:22:37;;;;;;;9.82;9.02;;;;;;;32.86;66.06;100552.50;5055201;28;65618;-42
2022/06/13 11:23:13;;;;;;;10.00;9.07;;;;;;;32.78;67.73;100590.91;5050209;28;70697;-40
2022/06/13 11:25:46;;;;;;;10.27;9.37;;;;;;;32.78;68.28;100609.91;5045580;28;66366;-42
2022/06/13 11:28:23;;;;;;;9.98;9.10;;;;;;;32.79;68.16;100611.59;5044489;28;70299;-42
2022/06/13 11:31:18;;;;;;;13.98;8.63;;;;;;;32.66;68.27;100611.84;5053039;28;64837;-42
2022/06/13 11:33:49;;;;;;;14.00;9.23;;;;;;;32.73;68.20;100617.94;5046914;28;69827;-41
2022/06/13 11:36:24;;;;;;;11.43;8.70;;;;;;;32.25;68.08;100556.63;5046294;28;68172;-41
2022/06/13 11:39:04;;;;;;;10.65;8.85;;;;;;;32.34;68.38;100576.06;5051382;28;70173;-40
2022/06/13 11:41:44;;;;;;;10.15;9.13;;;;;;;32.59;68.70;100633.69;5050556;28;66138;-42
2022/06/13 11:44:25;;;;;;;11.25;9.30;;;;;;;32.64;69.22;100655.53;5030779;28;70578;-41
2022/06/13 11:47:02;;;;;;;12.73;9.60;;;;;;;32.65;69.14;100653.63;5049118;28;66584;-41
2022/06/13 11:49:45;;;;;;;9.88;9.02;;;;;;;32.12;69.25;100567.72;5039095;28;70454;-41
2022/06/13 11:53:35;;;;;;;10.80;9.55;;;;;;;32.64;69.65;100641.13;5040330;28;66172;-40
2022/06/13 11:55:24;;;;;;;21.88;9.60;;;;;;;32.12;70.49;100568.53;5044930;28;70663;-42
2022/06/13 11:58:01;;;;;;;11.32;8.60;;;;;;;32.51;70.90;100622.34;5049112;28;65592;-41
2022/06/13 12:00:49;;;;;;;12.80;9.38;;;;;;;32.61;71.32;100647.03;5052258;28;69552;-42
2022/06/13 12:03:25;;;;;;;10.13;9.15;;;;;;;32.60;71.71;100653.53;5045030;28;66054;-38
2022/06/13 12:06:08;;;;;;;10.13;9.05;;;;;;;32.54;71.65;100662.59;5046535;28;69252;-41
2022/06/13 12:08:40;;;;;;;10.18;9.38;;;;;;;32.54;71.69;100651.75;5050416;28;66265;-41
2022/06/13 12:11:15;;;;;;;11.95;9.23;;;;;;;32.52;72.11;100648.47;5016454;28;69966;-41
2022/06/13 12:13:49;;;;;;;11.00;9.93;;;;;;;32.22;71.93;100595.09;5057387;28;66186;-40
2022/06/13 12:16:32;;;;;;;10.27;9.25;;;;;;;32.07;72.19;100581.16;5052183;28;70077;-40
2022/06/13 12:19:24;;;;;;;19.05;12.50;;;;;;;32.45;71.63;100654.78;5050224;28;65528;-41
2022/06/13 12:21:58;;;;;;;18.27;13.05;;;;;;;32.42;71.28;100655.25;5047691;28;70198;-40
2022/06/13 12:24:40;;;;;;;12.45;11.18;;;;;;;32.40;71.52;100668.28;5055919;28;65412;-40